sensor_id;sensor_type;location;lat;lon;timestamp;temperature;humidity
21612;DHT22;47005;52.292;13.452;2023-12-20T00:00:20;7.80;99.90
21612;DHT22;47005;52.292;13.452;2023-12-20T00:02:46;7.80;99.90
21612;DHT22;47005;52.292;13.452;2023-12-20T00:05:15;7.80;99.90
21612;DHT22;47005;52.292;13.452;2023-12-20T00:07:41;7.80;99.90
21612;DHT22;47005;52.292;13.452;2023-12-20T00:10:07;7.80;99.90
21612;DHT22;47005;52.292;13.452;2023-12-20T00:12:33;7.80;99.90
21612;DHT22;47005;52.292;13.452;2023-12-20T00:14:58;7.80;99.90
21612;DHT22;47005;52.292;13.452;2023-12-20T00:17:24;7.80;99.90
21612;DHT22;47005;52.292;13.452;2023-12-20T00:19:49;7.80;99.90
21612;DHT22;47005;52.292;13.452;2023-12-20T00:22:15;7.80;99.90
21612;DHT22;47005;52.292;13.452;2023-12-20T00:24:40;7.80;99.90
21612;DHT22;47005;52.292;13.452;2023-12-20T00:27:06;7.80;99.90
21612;DHT22;47005;52.292;13.452;2023-12-20T00:29:32;7.80;99.90
21612;DHT22;47005;52.292;13.452;2023-12-20T00:31:57;7.70;99.90
21612;DHT22;47005;52.292;13.452;2023-12-20T00:34:23;7.80;99.90
21612;DHT22;47005;52.292;13.452;2023-12-20T00:36:48;7.80;99.90
21612;DHT22;47005;52.292;13.452;2023-12-20T00:39:14;7.80;99.90
21612;DHT22;47005;52.292;13.452;2023-12-20T00:41:40;7.80;99.90
21612;DHT22;47005;52.292;13.452;2023-12-20T00:44:05;7.80;99.90
21612;DHT22;47005;52.292;13.452;2023-12-20T00:46:31;7.80;99.90
21612;DHT22;47005;52.292;13.452;2023-12-20T00:48:56;7.80;99.90
21612;DHT22;47005;52.292;13.452;2023-12-20T00:51:22;7.80;99.90
21612;DHT22;47005;52.292;13.452;2023-12-20T00:53:50;7.80;99.90
21612;DHT22;47005;52.292;13.452;2023-12-20T00:56:15;7.80;99.90
21612;DHT22;47005;52.292;13.452;2023-12-20T00:58:41;7.80;99.90
21612;DHT22;47005;52.292;13.452;2023-12-20T01:01:06;7.80;99.90
21612;DHT22;47005;52.292;13.452;2023-12-20T01:03:32;7.80;99.90
21612;DHT22;47005;52.292;13.452;2023-12-20T01:05:58;7.80;99.90
21612;DHT22;47005;52.292;13.452;2023-12-20T01:08:23;7.90;99.90
21612;DHT22;47005;52.292;13.452;2023-12-20T01:10:49;7.80;99.90
21612;DHT22;47005;52.292;13.452;2023-12-20T01:13:15;7.90;99.90
21612;DHT22;47005;52.292;13.452;2023-12-20T01:15:40;7.80;99.90
21612;DHT22;47005;52.292;13.452;2023-12-20T01:18:06;7.80;99.90
21612;DHT22;47005;52.292;13.452;2023-12-20T01:20:32;7.80;99.90
21612;DHT22;47005;52.292;13.452;2023-12-20T01:22:57;7.80;99.90
21612;DHT22;47005;52.292;13.452;2023-12-20T01:25:23;7.80;99.90
21612;DHT22;47005;52.292;13.452;2023-12-20T01:27:49;7.80;99.90
21612;DHT22;47005;52.292;13.452;2023-12-20T01:30:15;7.80;99.90
21612;DHT22;47005;52.292;13.452;2023-12-20T01:32:41;7.70;99.90
21612;DHT22;47005;52.292;13.452;2023-12-20T01:35:07;7.80;99.90
21612;DHT22;47005;52.292;13.452;2023-12-20T01:37:32;7.80;99.90
21612;DHT22;47005;52.292;13.452;2023-12-20T01:39:58;7.80;99.90
21612;DHT22;47005;52.292;13.452;2023-12-20T01:42:24;7.80;99.90
21612;DHT22;47005;52.292;13.452;2023-12-20T01:44:49;7.80;99.90
21612;DHT22;47005;52.292;13.452;2023-12-20T01:47:15;7.70;99.90
21612;DHT22;47005;52.292;13.452;2023-12-20T01:49:41;7.80;99.90
21612;DHT22;47005;52.292;13.452;2023-12-20T01:52:08;7.80;99.90
21612;DHT22;47005;52.292;13.452;2023-12-20T01:54:35;7.80;99.90
21612;DHT22;47005;52.292;13.452;2023-12-20T01:57:01;7.80;99.90
21612;DHT22;47005;52.292;13.452;2023-12-20T01:59:28;7.80;99.90
21612;DHT22;47005;52.292;13.452;2023-12-20T02:01:55;7.80;99.90
21612;DHT22;47005;52.292;13.452;2023-12-20T02:04:20;7.80;99.90
21612;DHT22;47005;52.292;13.452;2023-12-20T02:06:46;7.80;99.90
21612;DHT22;47005;52.292;13.452;2023-12-20T02:09:12;7.80;99.90
21612;DHT22;47005;52.292;13.452;2023-12-20T02:11:38;7.80;99.90
21612;DHT22;47005;52.292;13.452;2023-12-20T02:14:04;7.80;99.90
21612;DHT22;47005;52.292;13.452;2023-12-20T02:16:30;7.80;99.90
21612;DHT22;47005;52.292;13.452;2023-12-20T02:18:56;7.80;99.90
21612;DHT22;47005;52.292;13.452;2023-12-20T02:21:25;7.80;99.90
21612;DHT22;47005;52.292;13.452;2023-12-20T02:23:57;7.80;99.90
21612;DHT22;47005;52.292;13.452;2023-12-20T02:26:22;7.80;99.90
21612;DHT22;47005;52.292;13.452;2023-12-20T02:28:48;7.80;99.90
21612;DHT22;47005;52.292;13.452;2023-12-20T02:31:14;7.80;99.90
21612;DHT22;47005;52.292;13.452;2023-12-20T02:33:39;7.80;99.90
21612;DHT22;47005;52.292;13.452;2023-12-20T02:36:07;7.80;99.90
21612;DHT22;47005;52.292;13.452;2023-12-20T02:38:33;7.70;99.90
21612;DHT22;47005;52.292;13.452;2023-12-20T02:40:59;7.80;99.90
21612;DHT22;47005;52.292;13.452;2023-12-20T02:43:25;7.80;99.90
21612;DHT22;47005;52.292;13.452;2023-12-20T02:45:50;7.80;99.90
21612;DHT22;47005;52.292;13.452;2023-12-20T02:48:16;7.80;99.90
21612;DHT22;47005;52.292;13.452;2023-12-20T02:50:42;7.80;99.90
21612;DHT22;47005;52.292;13.452;2023-12-20T02:53:07;7.80;99.90
21612;DHT22;47005;52.292;13.452;2023-12-20T02:55:33;7.80;99.90
21612;DHT22;47005;52.292;13.452;2023-12-20T02:57:58;7.80;99.90
21612;DHT22;47005;52.292;13.452;2023-12-20T03:00:24;7.80;99.90
21612;DHT22;47005;52.292;13.452;2023-12-20T03:02:50;7.80;99.90
21612;DHT22;47005;52.292;13.452;2023-12-20T03:05:15;7.80;99.90
21612;DHT22;47005;52.292;13.452;2023-12-20T03:07:41;7.80;99.90
21612;DHT22;47005;52.292;13.452;2023-12-20T03:10:07;7.70;99.90
21612;DHT22;47005;52.292;13.452;2023-12-20T03:12:33;7.80;99.90
21612;DHT22;47005;52.292;13.452;2023-12-20T03:14:59;7.80;99.90
21612;DHT22;47005;52.292;13.452;2023-12-20T03:17:24;7.80;99.90
21612;DHT22;47005;52.292;13.452;2023-12-20T03:19:50;7.80;99.90
21612;DHT22;47005;52.292;13.452;2023-12-20T03:22:16;7.80;99.90
21612;DHT22;47005;52.292;13.452;2023-12-20T03:24:41;7.80;99.90
21612;DHT22;47005;52.292;13.452;2023-12-20T03:27:07;7.80;99.90
21612;DHT22;47005;52.292;13.452;2023-12-20T03:29:32;7.80;99.90
21612;DHT22;47005;52.292;13.452;2023-12-20T03:31:58;7.80;99.90
21612;DHT22;47005;52.292;13.452;2023-12-20T03:34:24;7.80;99.90
21612;DHT22;47005;52.292;13.452;2023-12-20T03:36:49;7.80;99.90
21612;DHT22;47005;52.292;13.452;2023-12-20T03:39:15;7.80;99.90
21612;DHT22;47005;52.292;13.452;2023-12-20T03:41:40;7.90;99.90
21612;DHT22;47005;52.292;13.452;2023-12-20T03:44:06;7.90;99.90
21612;DHT22;47005;52.292;13.452;2023-12-20T03:46:32;7.90;99.90
21612;DHT22;47005;52.292;13.452;2023-12-20T03:48:57;7.90;99.90
21612;DHT22;47005;52.292;13.452;2023-12-20T03:51:23;7.90;99.90
21612;DHT22;47005;52.292;13.452;2023-12-20T03:53:48;7.90;99.90
21612;DHT22;47005;52.292;13.452;2023-12-20T03:56:14;7.90;99.90
21612;DHT22;47005;52.292;13.452;2023-12-20T03:58:39;7.90;99.90
21612;DHT22;47005;52.292;13.452;2023-12-20T04:01:09;7.90;99.90
21612;DHT22;47005;52.292;13.452;2023-12-20T04:03:38;7.90;99.90
21612;DHT22;47005;52.292;13.452;2023-12-20T04:06:04;8.00;99.90
21612;DHT22;47005;52.292;13.452;2023-12-20T04:08:30;8.00;99.90
21612;DHT22;47005;52.292;13.452;2023-12-20T04:10:55;8.00;99.90
21612;DHT22;47005;52.292;13.452;2023-12-20T04:13:21;8.00;99.90
21612;DHT22;47005;52.292;13.452;2023-12-20T04:15:46;8.00;99.90
21612;DHT22;47005;52.292;13.452;2023-12-20T04:18:13;8.00;99.90
21612;DHT22;47005;52.292;13.452;2023-12-20T04:20:38;8.00;99.90
21612;DHT22;47005;52.292;13.452;2023-12-20T04:23:04;8.00;99.90
21612;DHT22;47005;52.292;13.452;2023-12-20T04:25:30;8.00;99.90
21612;DHT22;47005;52.292;13.452;2023-12-20T04:27:55;8.00;99.90
21612;DHT22;47005;52.292;13.452;2023-12-20T04:30:21;8.00;99.90
21612;DHT22;47005;52.292;13.452;2023-12-20T04:32:46;8.00;99.90
21612;DHT22;47005;52.292;13.452;2023-12-20T04:35:12;8.00;99.90
21612;DHT22;47005;52.292;13.452;2023-12-20T04:37:38;8.10;99.90
21612;DHT22;47005;52.292;13.452;2023-12-20T04:40:03;8.10;99.90
21612;DHT22;47005;52.292;13.452;2023-12-20T04:42:30;8.10;99.90
21612;DHT22;47005;52.292;13.452;2023-12-20T04:44:56;8.10;99.90
21612;DHT22;47005;52.292;13.452;2023-12-20T04:47:22;8.10;99.90
21612;DHT22;47005;52.292;13.452;2023-12-20T04:49:48;8.10;99.90
21612;DHT22;47005;52.292;13.452;2023-12-20T04:52:14;8.00;99.90
21612;DHT22;47005;52.292;13.452;2023-12-20T04:54:40;8.00;99.90
21612;DHT22;47005;52.292;13.452;2023-12-20T04:57:05;8.00;99.90
21612;DHT22;47005;52.292;13.452;2023-12-20T04:59:31;8.00;99.90
21612;DHT22;47005;52.292;13.452;2023-12-20T05:01:56;8.00;99.90
21612;DHT22;47005;52.292;13.452;2023-12-20T05:04:23;8.00;99.90
21612;DHT22;47005;52.292;13.452;2023-12-20T05:06:48;8.00;99.90
21612;DHT22;47005;52.292;13.452;2023-12-20T05:09:15;8.00;99.90
21612;DHT22;47005;52.292;13.452;2023-12-20T05:11:41;7.90;99.90
21612;DHT22;47005;52.292;13.452;2023-12-20T05:14:06;7.90;99.90
21612;DHT22;47005;52.292;13.452;2023-12-20T05:16:32;7.90;99.90
21612;DHT22;47005;52.292;13.452;2023-12-20T05:18:58;7.90;99.90
21612;DHT22;47005;52.292;13.452;2023-12-20T05:21:26;7.90;99.90
21612;DHT22;47005;52.292;13.452;2023-12-20T05:23:52;7.90;99.90
21612;DHT22;47005;52.292;13.452;2023-12-20T05:26:17;7.80;99.90
21612;DHT22;47005;52.292;13.452;2023-12-20T05:28:43;7.80;99.90
21612;DHT22;47005;52.292;13.452;2023-12-20T05:31:09;7.70;99.90
21612;DHT22;47005;52.292;13.452;2023-12-20T05:33:34;7.70;99.90
21612;DHT22;47005;52.292;13.452;2023-12-20T05:36:00;7.60;99.90
21612;DHT22;47005;52.292;13.452;2023-12-20T05:38:26;7.70;99.90
21612;DHT22;47005;52.292;13.452;2023-12-20T05:40:51;7.70;99.90
21612;DHT22;47005;52.292;13.452;2023-12-20T05:43:17;7.70;99.90
21612;DHT22;47005;52.292;13.452;2023-12-20T05:45:43;7.70;99.90
21612;DHT22;47005;52.292;13.452;2023-12-20T05:48:08;7.60;99.90
21612;DHT22;47005;52.292;13.452;2023-12-20T05:50:34;7.60;99.90
21612;DHT22;47005;52.292;13.452;2023-12-20T05:53:00;7.60;99.90
21612;DHT22;47005;52.292;13.452;2023-12-20T05:55:26;7.60;99.90
21612;DHT22;47005;52.292;13.452;2023-12-20T05:57:51;7.60;99.90
21612;DHT22;47005;52.292;13.452;2023-12-20T06:00:18;7.60;99.90
21612;DHT22;47005;52.292;13.452;2023-12-20T06:02:43;7.60;99.90
21612;DHT22;47005;52.292;13.452;2023-12-20T06:05:09;7.50;99.90
21612;DHT22;47005;52.292;13.452;2023-12-20T06:07:35;7.50;99.90
21612;DHT22;47005;52.292;13.452;2023-12-20T06:10:00;7.50;99.90
21612;DHT22;47005;52.292;13.452;2023-12-20T06:12:26;7.50;99.90
21612;DHT22;47005;52.292;13.452;2023-12-20T06:14:54;7.50;99.90
21612;DHT22;47005;52.292;13.452;2023-12-20T06:17:19;8.10;99.90
21612;DHT22;47005;52.292;13.452;2023-12-20T06:19:51;7.50;99.90
21612;DHT22;47005;52.292;13.452;2023-12-20T06:22:17;7.40;99.90
21612;DHT22;47005;52.292;13.452;2023-12-20T06:24:43;7.50;99.90
21612;DHT22;47005;52.292;13.452;2023-12-20T06:27:08;7.40;99.90
21612;DHT22;47005;52.292;13.452;2023-12-20T06:29:34;7.40;99.90
21612;DHT22;47005;52.292;13.452;2023-12-20T06:32:00;7.50;99.90
21612;DHT22;47005;52.292;13.452;2023-12-20T06:34:26;7.50;99.90
21612;DHT22;47005;52.292;13.452;2023-12-20T06:36:51;7.50;99.90
21612;DHT22;47005;52.292;13.452;2023-12-20T06:39:17;7.50;99.90
21612;DHT22;47005;52.292;13.452;2023-12-20T06:41:42;7.40;99.90
21612;DHT22;47005;52.292;13.452;2023-12-20T06:44:08;7.40;99.90
21612;DHT22;47005;52.292;13.452;2023-12-20T06:46:34;7.50;99.90
21612;DHT22;47005;52.292;13.452;2023-12-20T06:49:00;7.40;99.90
21612;DHT22;47005;52.292;13.452;2023-12-20T06:51:26;7.40;99.90
21612;DHT22;47005;52.292;13.452;2023-12-20T06:53:52;7.40;99.90
21612;DHT22;47005;52.292;13.452;2023-12-20T06:56:17;7.30;99.90
21612;DHT22;47005;52.292;13.452;2023-12-20T06:58:43;7.40;99.90
21612;DHT22;47005;52.292;13.452;2023-12-20T07:01:15;7.30;99.90
21612;DHT22;47005;52.292;13.452;2023-12-20T07:03:41;7.30;99.90
21612;DHT22;47005;52.292;13.452;2023-12-20T07:06:07;7.30;99.90
21612;DHT22;47005;52.292;13.452;2023-12-20T07:08:33;7.20;99.90
21612;DHT22;47005;52.292;13.452;2023-12-20T07:10:58;7.20;99.90
21612;DHT22;47005;52.292;13.452;2023-12-20T07:13:24;7.20;99.90
21612;DHT22;47005;52.292;13.452;2023-12-20T07:15:50;7.20;99.90
21612;DHT22;47005;52.292;13.452;2023-12-20T07:18:15;7.20;99.90
21612;DHT22;47005;52.292;13.452;2023-12-20T07:20:41;7.20;99.90
21612;DHT22;47005;52.292;13.452;2023-12-20T07:23:07;7.20;99.90
21612;DHT22;47005;52.292;13.452;2023-12-20T07:25:32;7.20;99.90
21612;DHT22;47005;52.292;13.452;2023-12-20T07:27:58;7.20;99.90
21612;DHT22;47005;52.292;13.452;2023-12-20T07:30:24;7.10;99.90
21612;DHT22;47005;52.292;13.452;2023-12-20T07:32:49;7.20;99.90
21612;DHT22;47005;52.292;13.452;2023-12-20T07:35:16;7.20;99.90
21612;DHT22;47005;52.292;13.452;2023-12-20T07:37:41;7.20;99.90
21612;DHT22;47005;52.292;13.452;2023-12-20T07:40:08;7.20;99.90
21612;DHT22;47005;52.292;13.452;2023-12-20T07:42:33;7.20;99.90
21612;DHT22;47005;52.292;13.452;2023-12-20T07:44:59;7.30;99.90
21612;DHT22;47005;52.292;13.452;2023-12-20T07:47:25;7.30;99.90
21612;DHT22;47005;52.292;13.452;2023-12-20T07:49:51;7.20;99.90
21612;DHT22;47005;52.292;13.452;2023-12-20T07:52:19;7.20;99.90
21612;DHT22;47005;52.292;13.452;2023-12-20T07:54:47;7.20;99.90
21612;DHT22;47005;52.292;13.452;2023-12-20T07:57:12;7.20;99.90
21612;DHT22;47005;52.292;13.452;2023-12-20T07:59:38;7.20;99.90
21612;DHT22;47005;52.292;13.452;2023-12-20T08:02:04;7.30;99.90
21612;DHT22;47005;52.292;13.452;2023-12-20T08:04:29;7.30;99.90
21612;DHT22;47005;52.292;13.452;2023-12-20T08:06:55;7.30;99.90
21612;DHT22;47005;52.292;13.452;2023-12-20T08:09:21;7.30;99.90
21612;DHT22;47005;52.292;13.452;2023-12-20T08:11:47;7.20;99.90
21612;DHT22;47005;52.292;13.452;2023-12-20T08:14:13;7.30;99.90
21612;DHT22;47005;52.292;13.452;2023-12-20T08:16:39;7.30;99.90
21612;DHT22;47005;52.292;13.452;2023-12-20T08:19:05;7.30;99.90
21612;DHT22;47005;52.292;13.452;2023-12-20T08:21:30;7.20;99.90
21612;DHT22;47005;52.292;13.452;2023-12-20T08:23:56;7.30;99.90
21612;DHT22;47005;52.292;13.452;2023-12-20T08:26:22;7.30;99.90
21612;DHT22;47005;52.292;13.452;2023-12-20T08:28:49;7.30;99.90
21612;DHT22;47005;52.292;13.452;2023-12-20T08:31:16;7.40;99.90
21612;DHT22;47005;52.292;13.452;2023-12-20T08:33:44;7.40;99.90
21612;DHT22;47005;52.292;13.452;2023-12-20T08:36:09;7.40;99.90
21612;DHT22;47005;52.292;13.452;2023-12-20T08:38:35;7.40;99.90
21612;DHT22;47005;52.292;13.452;2023-12-20T08:41:01;7.40;99.90
21612;DHT22;47005;52.292;13.452;2023-12-20T08:43:28;7.30;99.90
21612;DHT22;47005;52.292;13.452;2023-12-20T08:45:54;7.30;99.90
21612;DHT22;47005;52.292;13.452;2023-12-20T08:48:19;7.30;99.90
21612;DHT22;47005;52.292;13.452;2023-12-20T08:50:45;7.30;99.90
21612;DHT22;47005;52.292;13.452;2023-12-20T08:53:11;7.30;99.90
21612;DHT22;47005;52.292;13.452;2023-12-20T08:55:37;7.30;99.90
21612;DHT22;47005;52.292;13.452;2023-12-20T08:58:02;7.30;99.90
21612;DHT22;47005;52.292;13.452;2023-12-20T09:00:28;7.30;99.90
21612;DHT22;47005;52.292;13.452;2023-12-20T09:02:55;7.20;99.90
21612;DHT22;47005;52.292;13.452;2023-12-20T09:05:20;7.20;99.90
21612;DHT22;47005;52.292;13.452;2023-12-20T09:07:46;7.20;99.90
21612;DHT22;47005;52.292;13.452;2023-12-20T09:10:12;7.30;99.90
21612;DHT22;47005;52.292;13.452;2023-12-20T09:12:38;7.30;99.90
21612;DHT22;47005;52.292;13.452;2023-12-20T09:15:06;7.30;99.90
21612;DHT22;47005;52.292;13.452;2023-12-20T09:17:32;7.40;99.90
21612;DHT22;47005;52.292;13.452;2023-12-20T09:19:57;7.40;99.90
21612;DHT22;47005;52.292;13.452;2023-12-20T09:22:25;7.50;99.90
21612;DHT22;47005;52.292;13.452;2023-12-20T09:24:51;7.40;99.90
21612;DHT22;47005;52.292;13.452;2023-12-20T09:27:16;7.40;99.90
21612;DHT22;47005;52.292;13.452;2023-12-20T09:29:42;7.40;99.90
21612;DHT22;47005;52.292;13.452;2023-12-20T09:32:08;7.50;99.90
21612;DHT22;47005;52.292;13.452;2023-12-20T09:34:33;7.50;99.90
21612;DHT22;47005;52.292;13.452;2023-12-20T09:36:59;7.50;99.90
21612;DHT22;47005;52.292;13.452;2023-12-20T09:39:24;7.60;99.90
21612;DHT22;47005;52.292;13.452;2023-12-20T09:42:06;7.60;99.90
21612;DHT22;47005;52.292;13.452;2023-12-20T09:44:33;7.60;99.90
21612;DHT22;47005;52.292;13.452;2023-12-20T09:47:05;7.60;99.90
21612;DHT22;47005;52.292;13.452;2023-12-20T09:49:30;7.70;99.90
21612;DHT22;47005;52.292;13.452;2023-12-20T09:51:58;7.70;99.90
21612;DHT22;47005;52.292;13.452;2023-12-20T09:54:26;7.70;99.90
21612;DHT22;47005;52.292;13.452;2023-12-20T09:56:52;7.70;99.90
21612;DHT22;47005;52.292;13.452;2023-12-20T09:59:18;7.70;99.90
21612;DHT22;47005;52.292;13.452;2023-12-20T10:01:44;7.70;99.90
21612;DHT22;47005;52.292;13.452;2023-12-20T10:04:11;7.70;99.90
21612;DHT22;47005;52.292;13.452;2023-12-20T10:06:41;7.70;99.90
21612;DHT22;47005;52.292;13.452;2023-12-20T10:09:09;7.70;99.90
21612;DHT22;47005;52.292;13.452;2023-12-20T10:11:36;7.70;99.90
21612;DHT22;47005;52.292;13.452;2023-12-20T10:14:02;7.70;99.90
21612;DHT22;47005;52.292;13.452;2023-12-20T10:16:29;7.70;99.90
21612;DHT22;47005;52.292;13.452;2023-12-20T10:18:55;7.70;99.90
21612;DHT22;47005;52.292;13.452;2023-12-20T10:21:22;7.70;99.90
21612;DHT22;47005;52.292;13.452;2023-12-20T10:23:48;7.70;99.90
21612;DHT22;47005;52.292;13.452;2023-12-20T10:26:22;7.80;99.90
21612;DHT22;47005;52.292;13.452;2023-12-20T10:28:56;7.80;99.90
21612;DHT22;47005;52.292;13.452;2023-12-20T10:31:37;7.80;99.90
21612;DHT22;47005;52.292;13.452;2023-12-20T10:34:06;7.80;99.90
21612;DHT22;47005;52.292;13.452;2023-12-20T10:36:32;7.80;99.90
21612;DHT22;47005;52.292;13.452;2023-12-20T10:38:59;7.80;99.90
21612;DHT22;47005;52.292;13.452;2023-12-20T10:41:30;7.90;99.90
21612;DHT22;47005;52.292;13.452;2023-12-20T10:44:00;7.90;99.90
21612;DHT22;47005;52.292;13.452;2023-12-20T10:46:30;7.90;99.90
21612;DHT22;47005;52.292;13.452;2023-12-20T10:48:57;7.90;99.90
21612;DHT22;47005;52.292;13.452;2023-12-20T10:51:23;8.00;99.90
21612;DHT22;47005;52.292;13.452;2023-12-20T10:53:52;8.00;99.90
21612;DHT22;47005;52.292;13.452;2023-12-20T10:56:18;8.00;99.90
21612;DHT22;47005;52.292;13.452;2023-12-20T10:58:48;8.00;99.90
21612;DHT22;47005;52.292;13.452;2023-12-20T11:01:15;8.00;99.90
21612;DHT22;47005;52.292;13.452;2023-12-20T11:03:51;8.00;99.90
21612;DHT22;47005;52.292;13.452;2023-12-20T11:07:04;8.00;99.90
21612;DHT22;47005;52.292;13.452;2023-12-20T11:09:25;8.00;99.90
21612;DHT22;47005;52.292;13.452;2023-12-20T11:14:23;8.10;99.90
21612;DHT22;47005;52.292;13.452;2023-12-20T11:16:50;8.10;99.90
21612;DHT22;47005;52.292;13.452;2023-12-20T11:19:17;8.10;99.90
21612;DHT22;47005;52.292;13.452;2023-12-20T11:21:42;8.10;99.90
21612;DHT22;47005;52.292;13.452;2023-12-20T11:24:09;8.10;99.90
21612;DHT22;47005;52.292;13.452;2023-12-20T11:26:35;8.10;99.90
21612;DHT22;47005;52.292;13.452;2023-12-20T11:29:29;8.10;99.90
21612;DHT22;47005;52.292;13.452;2023-12-20T11:31:54;8.10;99.90
21612;DHT22;47005;52.292;13.452;2023-12-20T11:34:20;8.10;99.90
21612;DHT22;47005;52.292;13.452;2023-12-20T11:36:45;8.00;99.90
21612;DHT22;47005;52.292;13.452;2023-12-20T11:39:11;8.00;99.90
21612;DHT22;47005;52.292;13.452;2023-12-20T11:41:38;8.10;99.90
21612;DHT22;47005;52.292;13.452;2023-12-20T11:44:04;8.00;99.90
21612;DHT22;47005;52.292;13.452;2023-12-20T11:46:31;8.00;99.90
21612;DHT22;47005;52.292;13.452;2023-12-20T11:48:57;8.00;99.90
21612;DHT22;47005;52.292;13.452;2023-12-20T11:51:22;8.00;99.90
21612;DHT22;47005;52.292;13.452;2023-12-20T11:53:52;8.00;99.90
21612;DHT22;47005;52.292;13.452;2023-12-20T11:56:18;8.00;99.90
21612;DHT22;47005;52.292;13.452;2023-12-20T11:58:44;8.00;99.90
21612;DHT22;47005;52.292;13.452;2023-12-20T12:01:10;8.00;99.90
21612;DHT22;47005;52.292;13.452;2023-12-20T12:03:36;8.00;99.90
21612;DHT22;47005;52.292;13.452;2023-12-20T12:06:02;8.00;99.90
21612;DHT22;47005;52.292;13.452;2023-12-20T12:08:30;8.00;99.90
21612;DHT22;47005;52.292;13.452;2023-12-20T12:10:55;8.00;99.90
21612;DHT22;47005;52.292;13.452;2023-12-20T12:13:22;8.00;99.90
21612;DHT22;47005;52.292;13.452;2023-12-20T12:15:48;8.00;99.90
21612;DHT22;47005;52.292;13.452;2023-12-20T12:18:17;8.00;99.90
21612;DHT22;47005;52.292;13.452;2023-12-20T12:20:42;8.00;99.90
21612;DHT22;47005;52.292;13.452;2023-12-20T12:23:08;8.00;99.90
21612;DHT22;47005;52.292;13.452;2023-12-20T12:25:36;8.00;99.90
21612;DHT22;47005;52.292;13.452;2023-12-20T12:28:05;8.00;99.90
21612;DHT22;47005;52.292;13.452;2023-12-20T12:30:31;8.00;99.90
21612;DHT22;47005;52.292;13.452;2023-12-20T12:32:57;8.00;99.90
21612;DHT22;47005;52.292;13.452;2023-12-20T12:35:23;8.00;99.90
21612;DHT22;47005;52.292;13.452;2023-12-20T12:37:49;8.00;99.90
21612;DHT22;47005;52.292;13.452;2023-12-20T12:40:16;8.00;99.90
21612;DHT22;47005;52.292;13.452;2023-12-20T12:42:43;8.10;99.90
21612;DHT22;47005;52.292;13.452;2023-12-20T12:45:09;8.00;99.90
21612;DHT22;47005;52.292;13.452;2023-12-20T12:47:37;8.10;99.90
21612;DHT22;47005;52.292;13.452;2023-12-20T12:50:02;8.10;99.90
21612;DHT22;47005;52.292;13.452;2023-12-20T12:52:28;8.10;99.90
21612;DHT22;47005;52.292;13.452;2023-12-20T12:54:54;8.10;99.90
21612;DHT22;47005;52.292;13.452;2023-12-20T12:57:20;8.10;99.90
21612;DHT22;47005;52.292;13.452;2023-12-20T12:59:46;8.10;99.90
21612;DHT22;47005;52.292;13.452;2023-12-20T13:02:12;8.00;99.90
21612;DHT22;47005;52.292;13.452;2023-12-20T13:04:39;8.00;99.90
21612;DHT22;47005;52.292;13.452;2023-12-20T13:07:05;8.10;99.90
21612;DHT22;47005;52.292;13.452;2023-12-20T13:09:31;8.00;99.90
21612;DHT22;47005;52.292;13.452;2023-12-20T13:11:57;8.00;99.90
21612;DHT22;47005;52.292;13.452;2023-12-20T13:14:22;8.00;99.90
21612;DHT22;47005;52.292;13.452;2023-12-20T13:16:48;8.10;99.90
21612;DHT22;47005;52.292;13.452;2023-12-20T13:19:14;8.00;99.90
21612;DHT22;47005;52.292;13.452;2023-12-20T13:21:40;8.00;99.90
21612;DHT22;47005;52.292;13.452;2023-12-20T13:24:05;7.90;99.90
21612;DHT22;47005;52.292;13.452;2023-12-20T13:26:31;7.90;99.90
21612;DHT22;47005;52.292;13.452;2023-12-20T13:28:58;7.90;99.90
21612;DHT22;47005;52.292;13.452;2023-12-20T13:31:23;7.80;99.90
21612;DHT22;47005;52.292;13.452;2023-12-20T13:33:49;7.80;99.90
21612;DHT22;47005;52.292;13.452;2023-12-20T13:36:15;7.80;99.90
21612;DHT22;47005;52.292;13.452;2023-12-20T13:38:40;7.80;99.90
21612;DHT22;47005;52.292;13.452;2023-12-20T13:41:06;7.70;99.90
21612;DHT22;47005;52.292;13.452;2023-12-20T13:43:32;7.70;99.90
21612;DHT22;47005;52.292;13.452;2023-12-20T13:45:59;7.70;99.90
21612;DHT22;47005;52.292;13.452;2023-12-20T13:48:24;7.70;99.90
21612;DHT22;47005;52.292;13.452;2023-12-20T13:50:50;7.70;99.90
21612;DHT22;47005;52.292;13.452;2023-12-20T13:53:16;7.70;99.90
21612;DHT22;47005;52.292;13.452;2023-12-20T13:55:41;7.60;99.90
21612;DHT22;47005;52.292;13.452;2023-12-20T13:58:07;7.50;99.90
21612;DHT22;47005;52.292;13.452;2023-12-20T14:00:35;7.30;99.90
21612;DHT22;47005;52.292;13.452;2023-12-20T14:03:02;7.20;99.90
21612;DHT22;47005;52.292;13.452;2023-12-20T14:05:28;7.10;99.90
21612;DHT22;47005;52.292;13.452;2023-12-20T14:07:54;7.00;99.90
21612;DHT22;47005;52.292;13.452;2023-12-20T14:10:19;7.00;99.90
21612;DHT22;47005;52.292;13.452;2023-12-20T14:12:45;7.00;99.90
21612;DHT22;47005;52.292;13.452;2023-12-20T14:15:11;6.90;99.90
21612;DHT22;47005;52.292;13.452;2023-12-20T14:17:39;6.90;99.90
21612;DHT22;47005;52.292;13.452;2023-12-20T14:20:06;6.70;99.90
21612;DHT22;47005;52.292;13.452;2023-12-20T14:22:32;6.80;99.90
21612;DHT22;47005;52.292;13.452;2023-12-20T14:24:57;6.80;99.90
21612;DHT22;47005;52.292;13.452;2023-12-20T14:27:23;6.80;99.90
21612;DHT22;47005;52.292;13.452;2023-12-20T14:29:53;6.80;99.90
21612;DHT22;47005;52.292;13.452;2023-12-20T14:32:19;6.80;99.90
21612;DHT22;47005;52.292;13.452;2023-12-20T14:34:45;6.80;99.90
21612;DHT22;47005;52.292;13.452;2023-12-20T14:37:10;6.80;99.90
21612;DHT22;47005;52.292;13.452;2023-12-20T14:39:36;6.80;99.90
21612;DHT22;47005;52.292;13.452;2023-12-20T14:42:07;6.80;99.90
21612;DHT22;47005;52.292;13.452;2023-12-20T14:44:36;6.70;99.90
21612;DHT22;47005;52.292;13.452;2023-12-20T14:47:02;6.70;99.90
21612;DHT22;47005;52.292;13.452;2023-12-20T14:49:27;6.80;99.90
21612;DHT22;47005;52.292;13.452;2023-12-20T14:51:53;6.70;99.90
21612;DHT22;47005;52.292;13.452;2023-12-20T14:54:19;6.70;99.90
21612;DHT22;47005;52.292;13.452;2023-12-20T14:56:46;6.60;99.90
21612;DHT22;47005;52.292;13.452;2023-12-20T14:59:12;6.60;99.90
21612;DHT22;47005;52.292;13.452;2023-12-20T15:01:38;6.60;99.90
21612;DHT22;47005;52.292;13.452;2023-12-20T15:04:06;6.60;99.90
21612;DHT22;47005;52.292;13.452;2023-12-20T15:06:31;6.60;99.90
21612;DHT22;47005;52.292;13.452;2023-12-20T15:08:58;6.60;99.90
21612;DHT22;47005;52.292;13.452;2023-12-20T15:11:24;6.60;99.90
21612;DHT22;47005;52.292;13.452;2023-12-20T15:13:49;6.60;99.90
21612;DHT22;47005;52.292;13.452;2023-12-20T15:16:24;6.60;99.90
21612;DHT22;47005;52.292;13.452;2023-12-20T15:18:51;6.60;99.90
21612;DHT22;47005;52.292;13.452;2023-12-20T15:21:17;6.60;99.90
21612;DHT22;47005;52.292;13.452;2023-12-20T15:23:43;6.60;99.90
21612;DHT22;47005;52.292;13.452;2023-12-20T15:26:18;6.60;99.90